createdAt,value
2019-01-09T01:00:28.132Z,75.61
2019-01-09T01:17:10.407Z,75.90
2019-01-09T01:28:13.709Z,77.02
2019-01-09T02:30:43.200Z,78.02
2019-01-09T02:35:47.293Z,77.09
2019-01-09T02:40:52.003Z,76.83
2019-01-09T02:45:54.753Z,78.67
2019-01-09T02:50:58.092Z,78.58
2019-01-09T02:56:01.446Z,77.30
2019-01-09T04:04:27.512Z,82.86
2019-01-09T04:09:30.837Z,82.04
2019-01-09T04:14:34.925Z,82.77
2019-01-09T04:19:38.250Z,81.99
2019-01-09T04:24:42.349Z,81.49
2019-01-09T04:29:45.678Z,82.34
2019-01-09T05:31:50.129Z,77.60
2019-01-09T05:36:54.219Z,78.58
2019-01-09T05:41:57.549Z,77.41
2019-01-09T05:47:01.649Z,77.11
2019-01-09T05:52:05.115Z,76.80
2019-01-09T05:57:08.453Z,77.71
2019-01-09T07:00:16.547Z,79.71
2019-01-09T07:05:19.900Z,78.43
2019-01-09T07:10:23.240Z,78.26
2019-01-09T07:15:27.649Z,77.59
2019-01-09T07:20:30.999Z,76.91
2019-01-09T07:25:34.427Z,77.09
2019-01-09T08:33:57.696Z,78.01
2019-01-09T08:39:01.031Z,77.29
2019-01-09T08:44:04.367Z,77.55
2019-01-09T08:49:07.698Z,76.04
2019-01-09T08:54:11.030Z,76.16
2019-01-09T08:59:14.383Z,75.29
2019-01-09T10:01:21.877Z,73.66
2019-01-09T10:06:25.209Z,72.82
2019-01-09T10:11:29.301Z,73.33
2019-01-09T10:16:32.623Z,74.02
2019-01-09T10:21:35.944Z,74.33
2019-01-09T10:26:39.269Z,74.05
2019-01-09T11:35:05.124Z,74.51
2019-01-09T11:40:09.240Z,74.37
2019-01-09T11:45:13.984Z,74.20
2019-01-09T11:50:18.168Z,73.36
2019-01-09T11:55:21.434Z,72.96
2019-01-09T12:00:25.541Z,72.89
2019-01-09T13:02:29.875Z,74.03
2019-01-09T13:07:33.230Z,73.22
2019-01-09T13:12:36.560Z,74.05
2019-01-09T13:17:39.889Z,74.46
2019-01-09T13:22:43.209Z,74.98
2019-01-09T13:27:46.546Z,74.89
2019-01-09T14:30:23.744Z,75.90
2019-01-09T14:35:27.849Z,74.80
2019-01-09T14:40:31.177Z,74.61
2019-01-09T14:45:34.512Z,74.86
2019-01-09T14:50:37.862Z,75.06
2019-01-09T14:55:41.207Z,75.39
2019-01-09T16:04:07.122Z,74.40
2019-01-09T16:09:10.450Z,74.25
2019-01-09T16:14:13.781Z,74.35
2019-01-09T16:19:17.119Z,75.11
2019-01-09T16:24:20.458Z,74.73
2019-01-09T16:29:23.786Z,74.09
2019-01-09T16:34:27.116Z,74.92
2019-01-09T16:39:31.065Z,74.43
2019-01-09T16:44:33.801Z,74.15
2019-01-09T16:49:37.136Z,74.74
2019-01-09T16:54:40.483Z,75.84
2019-01-09T16:59:43.828Z,75.10
2019-01-09T17:04:47.189Z,74.63
2019-01-09T17:09:50.557Z,74.72
2019-01-09T17:14:53.920Z,75.18
2019-01-09T17:19:57.297Z,74.93
2019-01-09T17:25:00.659Z,75.14
2019-01-09T17:30:14.862Z,74.60
2019-01-09T17:35:18.441Z,75.98
2019-01-09T17:40:22.927Z,75.36
2019-01-09T17:45:28.684Z,76.01
2019-01-09T17:50:35.485Z,76.38
2019-01-09T17:55:38.824Z,75.80
2019-01-09T18:00:42.928Z,75.02
2019-01-09T18:05:46.281Z,75.83
2019-01-09T18:10:50.286Z,75.37
2019-01-09T18:15:53.009Z,75.82
2019-01-09T18:20:56.356Z,75.63
2019-01-09T18:25:59.761Z,75.94
2019-01-09T18:31:09.119Z,75.12
2019-01-09T18:36:28.300Z,75.54
2019-01-09T18:47:06.618Z,76.21
2019-01-09T18:52:18.626Z,75.88
2019-01-09T18:57:21.964Z,75.18
2019-01-09T19:02:25.325Z,75.52
2019-01-09T19:07:28.672Z,75.55
2019-01-09T19:12:32.031Z,74.84
2019-01-09T19:17:36.151Z,74.45
2019-01-09T19:22:39.517Z,74.52
2019-01-09T19:27:42.897Z,74.90
2019-01-09T19:32:46.485Z,74.73
2019-01-09T19:37:49.868Z,75.25
2019-01-09T19:42:53.214Z,74.99
2019-01-09T19:47:56.544Z,75.41
2019-01-09T19:52:59.894Z,74.67
2019-01-09T19:58:03.242Z,75.08
2019-01-09T20:03:06.753Z,74.77
2019-01-09T20:08:10.141Z,74.67
2019-01-09T20:13:14.321Z,75.12
2019-01-09T20:18:19.099Z,75.47
2019-01-09T20:23:22.887Z,75.22
2019-01-09T20:28:26.234Z,74.85
2019-01-09T20:33:29.576Z,75.71
2019-01-09T20:38:33.351Z,75.38
2019-01-09T20:43:39.276Z,76.01
2019-01-09T20:48:47.638Z,75.61
2019-01-09T20:53:52.639Z,75.53
2019-01-09T20:58:56.134Z,75.69
2019-01-09T21:04:02.930Z,75.85
2019-01-09T21:09:07.257Z,76.13
2019-01-09T21:14:10.633Z,75.75
2019-01-09T21:19:14.017Z,75.62
2019-01-09T21:24:17.388Z,74.94
2019-01-09T21:29:20.745Z,75.50
2019-01-09T21:34:24.128Z,75.02
2019-01-09T21:39:27.485Z,75.31
2019-01-09T21:44:30.840Z,75.43
2019-01-09T21:49:34.404Z,75.01
2019-01-09T21:54:37.749Z,75.37
2019-01-09T21:59:49.197Z,75.36
2019-01-09T22:04:52.559Z,75.78
2019-01-09T22:09:56.668Z,75.63
2019-01-09T22:15:00.025Z,75.45
2019-01-09T22:20:03.475Z,75.79
2019-01-09T22:25:09.673Z,75.17
2019-01-09T22:30:17.131Z,75.04
2019-01-09T22:35:20.492Z,75.68
2019-01-09T22:40:24.593Z,75.54
2019-01-09T22:45:27.956Z,75.36
2019-01-09T22:50:31.284Z,75.04
2019-01-09T22:55:34.620Z,75.07
2019-01-09T23:32:18.777Z,75.97
2019-01-09T23:37:23.076Z,75.49
2019-01-09T23:42:30.471Z,76.62
2019-01-09T23:47:29.825Z,75.97
2019-01-09T23:52:34.148Z,76.08
2019-01-09T23:57:37.540Z,76.47
